logo
Search for airport 
image banner adimage banner adimage banner ad
image banner ad

YMET - Melville Water Aerodrome

Located in Belmont, Australia

ICAO - , IATA -

Data provided by Airmate  

General information

Coordinates: S31°58'39" E115°50'29"
Elevation is feet MSL.
Magnetic variation is -2° East
View others Airports in Western Australia

Operational data

Special qualification required
Current time UTC:
Current local time:
Weather at : YPPH - Perth ( 13 km )
METAR: YPPH 231730Z 00000KT CAVOK 04/03 Q1018
TAF: TAF YPPH 231425Z 2315/2418 18007KT CAVOK FM231900 06005KT 9999 FEW040 FM240100 34008KT 9999 -SHRA SCT030 BKN040 FM240600 23012KT 9999 -SHRA BKN030 FM241100 08005KT 9999 -SHRA SCT020 BKN030 INTER 2406/2417 4000 SHRA SCT015 BKN025
View NOTAMs / SUP AIP / TFR affecting this airport [VIEW]
Communications frequencies: [VIEW]

Runways:

RWY identifierQFULength (ft)Width (ft)SurfaceLDA (ft)
063281230UNK
243281230UNK

Airport contact information

Address: Belmont Australia

Satellite view of YMET